createdAt,value
2018-07-31T00:00:21.948Z,1320.55
2018-07-31T00:02:50.892Z,1320.63
2018-07-31T00:05:19.721Z,1321.40
2018-07-31T00:07:49.508Z,1321.58
2018-07-31T00:10:19.173Z,1325.67
2018-07-31T00:12:47.885Z,1325.10
2018-07-31T00:15:16.583Z,1323.18
2018-07-31T00:17:45.305Z,1326.08
2018-07-31T00:20:15.164Z,1329.93
2018-07-31T00:22:43.818Z,1331.65
2018-07-31T00:25:12.674Z,1334.28
2018-07-31T00:27:41.394Z,1331.28
2018-07-31T00:30:10.429Z,1332.87
2018-07-31T00:32:39.327Z,1334.87
2018-07-31T00:35:09.092Z,1310.08
2018-07-31T00:37:37.848Z,1322.45
2018-07-31T00:40:06.589Z,1333.30
2018-07-31T00:42:35.539Z,1331.13
2018-07-31T00:45:05.661Z,1333.47
2018-07-31T00:47:35.405Z,1334.80
2018-07-31T00:50:04.239Z,1310.98
2018-07-31T00:52:32.973Z,1334.58
2018-07-31T00:55:01.670Z,1334.80
2018-07-31T00:57:32.546Z,1328.88
2018-07-31T01:00:00.939Z,1331.85
2018-07-31T01:02:32.750Z,1331.88
2018-07-31T01:05:01.509Z,1330.43
2018-07-31T01:07:30.349Z,1332.53
2018-07-31T01:10:00.941Z,1338.63
2018-07-31T01:12:29.781Z,1327.28
2018-07-31T01:14:58.466Z,1332.50
2018-07-31T01:17:27.258Z,1331.58
2018-07-31T01:19:56.812Z,1328.70
2018-07-31T01:22:25.547Z,1327.90
2018-07-31T01:24:54.444Z,1322.93
2018-07-31T01:27:23.209Z,1331.58
2018-07-31T01:29:52.173Z,1333.03
2018-07-31T01:32:20.938Z,1330.93
2018-07-31T01:34:50.356Z,1330.23
2018-07-31T01:37:19.134Z,1327.13
2018-07-31T01:39:47.900Z,1324.33
2018-07-31T01:42:16.688Z,1319.30
2018-07-31T01:44:45.380Z,1322.95
2018-07-31T01:47:14.356Z,1317.47
2018-07-31T01:49:43.343Z,1277.53
2018-07-31T01:52:12.073Z,1017.25
2018-07-31T01:54:40.788Z,1061.93
2018-07-31T01:57:09.566Z,1075.20
2018-07-31T01:59:39.330Z,1299.40
2018-07-31T02:02:08.032Z,1328.90
2018-07-31T02:04:37.071Z,1325.73
2018-07-31T02:07:05.955Z,1325.38
2018-07-31T02:09:34.625Z,1323.60
2018-07-31T02:12:03.428Z,1324.08
2018-07-31T02:14:32.128Z,1320.57
2018-07-31T02:17:00.854Z,1316.15
2018-07-31T02:19:29.613Z,1322.50
2018-07-31T02:21:58.392Z,1316.58
2018-07-31T02:24:27.188Z,1320.90
2018-07-31T02:26:56.151Z,1318.72
2018-07-31T02:29:30.216Z,1319.08
2018-07-31T02:32:01.139Z,1314.55
2018-07-31T02:34:29.928Z,1315.45
2018-07-31T02:36:58.764Z,1312.00
2018-07-31T02:39:27.529Z,1315.70
2018-07-31T02:42:00.234Z,1310.00
2018-07-31T02:44:30.092Z,1314.23
2018-07-31T02:46:58.886Z,1310.93
2018-07-31T02:49:28.555Z,1314.58
2018-07-31T02:51:57.293Z,1311.83
2018-07-31T02:54:26.148Z,1308.00
2018-07-31T02:56:54.976Z,1310.35
2018-07-31T02:59:23.819Z,1310.42
2018-07-31T03:01:52.673Z,1304.80
2018-07-31T03:04:21.360Z,1309.93
2018-07-31T03:06:50.323Z,1314.63
2018-07-31T03:09:18.678Z,1313.63
2018-07-31T03:11:48.117Z,1301.55
2018-07-31T03:14:17.132Z,1307.97
2018-07-31T03:16:46.516Z,1307.65
2018-07-31T03:19:15.329Z,1302.20
2018-07-31T03:21:44.090Z,1307.67
2018-07-31T03:24:12.852Z,1301.73
2018-07-31T03:26:41.550Z,1303.97
2018-07-31T03:29:11.310Z,1302.30
2018-07-31T03:31:40.080Z,1301.47
2018-07-31T03:34:09.998Z,1303.08
2018-07-31T03:36:38.963Z,1301.40
2018-07-31T03:39:08.871Z,1296.00
2018-07-31T03:41:37.722Z,1296.48
2018-07-31T03:44:07.015Z,1295.75
2018-07-31T03:46:37.412Z,1298.35
2018-07-31T03:49:06.369Z,1293.55
2018-07-31T03:51:35.276Z,1290.98
2018-07-31T03:54:04.057Z,1098.10
2018-07-31T03:56:32.947Z,1030.78
2018-07-31T03:59:01.661Z,1079.53
2018-07-31T04:01:30.443Z,1079.28
2018-07-31T04:03:59.209Z,1095.83
2018-07-31T04:06:28.012Z,1047.13
2018-07-31T04:08:59.873Z,1097.20
2018-07-31T04:11:28.299Z,1284.48
2018-07-31T04:13:57.862Z,1282.93
2018-07-31T04:16:26.623Z,1286.72
2018-07-31T04:18:55.331Z,1290.58
2018-07-31T04:21:24.037Z,1291.85
2018-07-31T04:23:52.692Z,1291.53
2018-07-31T04:26:21.482Z,1285.20
2018-07-31T04:28:50.342Z,1295.85
2018-07-31T04:31:19.438Z,1300.83
2018-07-31T04:33:48.189Z,1314.08
2018-07-31T04:36:17.881Z,1318.95
2018-07-31T04:38:46.602Z,1321.70
2018-07-31T04:41:16.301Z,1332.98
2018-07-31T04:43:45.092Z,1345.55
2018-07-31T04:46:13.840Z,1350.63
2018-07-31T04:48:42.593Z,1361.10
2018-07-31T04:51:10.888Z,1367.93
2018-07-31T04:53:39.606Z,1381.10
2018-07-31T04:56:08.330Z,1389.72
2018-07-31T04:58:37.046Z,1399.55
2018-07-31T05:01:05.763Z,1408.90
2018-07-31T05:03:34.447Z,1415.40
2018-07-31T05:06:03.287Z,1422.27
2018-07-31T05:08:32.022Z,1419.83
2018-07-31T05:11:00.777Z,1422.73
2018-07-31T05:13:29.454Z,1430.80
2018-07-31T05:15:58.174Z,1433.65
2018-07-31T05:18:26.952Z,1438.10
2018-07-31T05:20:55.882Z,1446.30
2018-07-31T05:23:24.569Z,1451.05
2018-07-31T05:25:53.452Z,1453.80
2018-07-31T05:28:22.242Z,1458.70
2018-07-31T05:30:50.926Z,1455.13
2018-07-31T05:33:19.746Z,1452.37
2018-07-31T05:35:48.437Z,1297.53
2018-07-31T05:38:17.175Z,1370.23
2018-07-31T05:40:45.980Z,841.60
2018-07-31T05:43:14.713Z,963.52
2018-07-31T05:45:43.124Z,980.93
2018-07-31T05:48:11.898Z,778.55
2018-07-31T05:50:40.712Z,681.27
2018-07-31T05:53:09.515Z,1021.80
2018-07-31T05:55:38.225Z,1272.58
2018-07-31T05:58:07.129Z,1404.20
2018-07-31T06:00:35.953Z,1407.48
2018-07-31T06:03:04.928Z,1406.55
2018-07-31T06:05:33.637Z,1402.38
2018-07-31T06:08:02.374Z,1384.08
2018-07-31T06:10:32.234Z,1384.90
2018-07-31T06:13:01.915Z,1387.50
2018-07-31T06:15:30.681Z,1382.78
2018-07-31T06:17:59.437Z,1377.45
2018-07-31T06:20:28.161Z,1380.57
2018-07-31T06:22:56.859Z,1366.98
2018-07-31T06:25:26.271Z,1365.30
2018-07-31T06:27:55.042Z,1378.78
2018-07-31T06:30:23.798Z,1379.35
2018-07-31T06:32:52.650Z,1382.35
2018-07-31T06:35:22.538Z,1385.43
2018-07-31T06:37:51.225Z,1383.90
2018-07-31T06:40:20.282Z,1384.63
2018-07-31T06:42:49.729Z,1383.43
2018-07-31T06:45:18.504Z,1393.17
2018-07-31T06:47:48.911Z,1378.38
2018-07-31T06:50:17.608Z,1402.03
2018-07-31T06:52:46.332Z,1392.35
2018-07-31T06:55:17.241Z,1386.77
2018-07-31T06:57:45.888Z,1381.65
2018-07-31T07:00:15.649Z,1410.00
2018-07-31T07:02:44.353Z,1414.23
2018-07-31T07:05:13.280Z,1413.23
2018-07-31T07:07:41.882Z,1417.85
2018-07-31T07:10:10.695Z,1390.98
2018-07-31T07:12:39.368Z,1412.08
2018-07-31T07:15:08.150Z,1416.10
2018-07-31T07:17:36.904Z,1426.15
2018-07-31T07:20:05.663Z,1423.72
2018-07-31T07:22:35.391Z,1425.95
2018-07-31T07:25:08.034Z,1424.10
2018-07-31T07:27:36.764Z,1432.25
2018-07-31T07:30:06.393Z,1430.53
2018-07-31T07:32:36.124Z,1425.53
2018-07-31T07:35:04.968Z,1422.33
2018-07-31T07:37:34.694Z,1418.70
2018-07-31T07:40:03.742Z,1417.88
2018-07-31T07:42:32.497Z,1412.85
2018-07-31T07:45:01.180Z,1412.63
2018-07-31T07:47:30.053Z,1414.10
2018-07-31T07:49:59.781Z,1408.03
2018-07-31T07:52:28.501Z,1411.15
2018-07-31T07:54:57.248Z,1411.00
2018-07-31T07:57:26.178Z,1412.43
2018-07-31T07:59:54.937Z,1409.67
2018-07-31T08:02:23.658Z,781.70
2018-07-31T08:04:52.407Z,759.00
2018-07-31T08:07:21.249Z,756.78
2018-07-31T08:09:50.100Z,777.92
2018-07-31T08:12:18.785Z,781.50
2018-07-31T08:14:47.576Z,1408.80
2018-07-31T08:17:16.316Z,1422.07
2018-07-31T08:19:45.055Z,1418.93
2018-07-31T08:22:13.756Z,1416.23
2018-07-31T08:24:42.612Z,1418.55
2018-07-31T08:27:11.313Z,1418.63
2018-07-31T08:29:40.011Z,1416.80
2018-07-31T08:32:09.007Z,1420.83
2018-07-31T08:34:37.784Z,833.45
2018-07-31T08:37:07.064Z,923.38
2018-07-31T08:39:36.009Z,1417.38
2018-07-31T08:42:04.846Z,1423.15
2018-07-31T08:44:33.686Z,1420.18
2018-07-31T08:47:02.929Z,1416.70
2018-07-31T08:49:31.781Z,1420.37
2018-07-31T08:52:00.628Z,1427.65
2018-07-31T08:54:30.356Z,1426.47
2018-07-31T08:56:59.565Z,1424.47
2018-07-31T08:59:28.284Z,1423.20
2018-07-31T09:01:57.250Z,1420.93
2018-07-31T09:04:26.069Z,1415.98
2018-07-31T09:06:54.779Z,1363.88
2018-07-31T09:09:23.621Z,1390.90
2018-07-31T09:11:53.345Z,1427.45
2018-07-31T09:14:23.130Z,1420.90
2018-07-31T09:16:51.816Z,1427.20
2018-07-31T09:19:20.536Z,1427.72
2018-07-31T09:21:49.190Z,1426.73
2018-07-31T09:24:17.865Z,1432.00
2018-07-31T09:26:46.617Z,1428.43
2018-07-31T09:29:15.447Z,1420.90
2018-07-31T09:31:44.283Z,1421.70
2018-07-31T09:34:12.979Z,1430.23
2018-07-31T09:36:42.413Z,1431.93
2018-07-31T09:39:12.368Z,1430.08
2018-07-31T09:41:41.115Z,1435.72
2018-07-31T09:44:10.201Z,1431.13
2018-07-31T09:46:39.099Z,1390.60
2018-07-31T09:49:07.829Z,1387.80
2018-07-31T09:51:36.594Z,1414.63
2018-07-31T09:54:05.315Z,1410.38
2018-07-31T09:56:34.018Z,1393.10
2018-07-31T09:59:02.783Z,1406.15
2018-07-31T10:01:31.601Z,1415.45
2018-07-31T10:04:00.308Z,1428.20
2018-07-31T10:06:29.244Z,1436.35
2018-07-31T10:08:57.985Z,1429.23
2018-07-31T10:11:26.750Z,1426.67
2018-07-31T10:13:55.548Z,1429.08
2018-07-31T10:16:24.972Z,1435.10
2018-07-31T10:18:53.655Z,1440.20
2018-07-31T10:21:22.458Z,1443.35
2018-07-31T10:23:51.187Z,1428.80
2018-07-31T10:26:19.955Z,1442.58
2018-07-31T10:28:49.698Z,1444.27
2018-07-31T10:31:18.449Z,1442.38
2018-07-31T10:33:48.178Z,1418.00
2018-07-31T10:36:16.997Z,1424.50
2018-07-31T10:38:47.758Z,1431.67
2018-07-31T10:41:17.504Z,1447.58
2018-07-31T10:43:46.377Z,1450.10
2018-07-31T10:46:15.053Z,1430.58
2018-07-31T10:48:44.105Z,1431.10
2018-07-31T10:51:13.638Z,1409.25
2018-07-31T10:53:43.863Z,1428.27
2018-07-31T10:56:12.517Z,1449.37
2018-07-31T10:58:42.218Z,1448.70
2018-07-31T11:01:10.946Z,1452.65
2018-07-31T11:03:39.673Z,1450.85
2018-07-31T11:06:08.013Z,1450.25
2018-07-31T11:08:36.893Z,1457.00
2018-07-31T11:11:05.601Z,1363.25
2018-07-31T11:13:34.414Z,1442.30
2018-07-31T11:16:03.776Z,1430.08
2018-07-31T11:18:32.488Z,1451.60
2018-07-31T11:21:01.276Z,1457.98
2018-07-31T11:23:30.010Z,1453.77
2018-07-31T11:25:58.665Z,1454.88
2018-07-31T11:28:27.485Z,1459.47
2018-07-31T11:30:56.151Z,1458.38
2018-07-31T11:33:24.890Z,1448.83
2018-07-31T11:35:54.569Z,1447.72
2018-07-31T11:38:23.479Z,1451.25
2018-07-31T11:40:53.246Z,1453.90
2018-07-31T11:43:21.956Z,1449.40
2018-07-31T11:45:50.737Z,1461.55
2018-07-31T11:48:19.433Z,1468.58
2018-07-31T11:50:48.115Z,1463.43
2018-07-31T11:53:16.913Z,1468.53
2018-07-31T11:55:45.555Z,1473.67
2018-07-31T11:58:14.288Z,1465.53
2018-07-31T12:00:43.142Z,1469.50
2018-07-31T12:03:12.926Z,1463.13
2018-07-31T12:05:41.690Z,1477.48
2018-07-31T12:08:10.493Z,1472.33
2018-07-31T12:10:39.139Z,1479.20
2018-07-31T12:13:08.040Z,1479.07
2018-07-31T12:15:36.803Z,1479.05
2018-07-31T12:18:05.588Z,1481.33
2018-07-31T12:20:35.734Z,1482.10
2018-07-31T12:23:05.096Z,1482.10
2018-07-31T12:25:33.855Z,1485.98
2018-07-31T12:28:02.553Z,1484.77
2018-07-31T12:30:31.289Z,1484.58
2018-07-31T12:32:59.916Z,1476.55
2018-07-31T12:35:28.702Z,1482.80
2018-07-31T12:37:57.380Z,1434.85
2018-07-31T12:40:26.369Z,1437.63
2018-07-31T12:42:54.680Z,1446.25
2018-07-31T12:45:23.454Z,1418.13
2018-07-31T12:47:52.197Z,1437.77
2018-07-31T12:50:20.994Z,1415.18
2018-07-31T12:52:49.727Z,1413.07
2018-07-31T12:55:18.467Z,1406.95
2018-07-31T12:57:47.175Z,1395.33
2018-07-31T13:00:16.668Z,1379.80
2018-07-31T13:02:45.444Z,1364.35
2018-07-31T13:05:14.186Z,1330.83
2018-07-31T13:07:43.070Z,1316.33
2018-07-31T13:10:11.754Z,1336.98
2018-07-31T13:12:40.473Z,1344.90
2018-07-31T13:15:09.196Z,1352.83
2018-07-31T13:17:38.029Z,1346.58
2018-07-31T13:20:06.847Z,1350.58
2018-07-31T13:22:35.573Z,1311.30
2018-07-31T13:25:04.400Z,1318.90
2018-07-31T13:27:33.037Z,1340.38
2018-07-31T13:30:01.907Z,1354.65
2018-07-31T13:32:30.275Z,1328.70
2018-07-31T13:34:59.721Z,1283.58
2018-07-31T13:37:28.589Z,1274.85
2018-07-31T13:39:57.317Z,1251.93
2018-07-31T13:42:26.069Z,1257.15
2018-07-31T13:44:55.168Z,1262.05
2018-07-31T13:47:23.863Z,1254.93
2018-07-31T13:49:52.705Z,1313.40
2018-07-31T13:52:21.571Z,1365.33
2018-07-31T13:54:50.267Z,1312.13
2018-07-31T13:57:18.947Z,1350.37
2018-07-31T13:59:47.952Z,1326.48
2018-07-31T14:02:16.660Z,1329.90
2018-07-31T14:04:45.424Z,1365.78
2018-07-31T14:07:14.179Z,1336.55
2018-07-31T14:09:42.954Z,1359.80
2018-07-31T14:12:11.689Z,1359.40
2018-07-31T14:14:41.460Z,1308.80
2018-07-31T14:17:10.950Z,1304.70
2018-07-31T14:19:39.614Z,1355.15
2018-07-31T14:22:08.518Z,1264.43
2018-07-31T14:24:37.338Z,1241.23
2018-07-31T14:27:06.018Z,1290.93
2018-07-31T14:29:34.836Z,1310.27
2018-07-31T14:32:03.687Z,1311.35
2018-07-31T14:34:32.279Z,1325.43
2018-07-31T14:37:01.604Z,1300.63
2018-07-31T14:39:30.352Z,1308.35
2018-07-31T14:41:58.980Z,1330.43
2018-07-31T14:44:27.666Z,1289.08
2018-07-31T14:46:57.398Z,1302.25
2018-07-31T14:49:26.269Z,1319.25
2018-07-31T14:51:54.947Z,1311.43
2018-07-31T14:54:23.647Z,1273.47
2018-07-31T14:56:52.355Z,1297.50
2018-07-31T14:59:21.627Z,1235.30
2018-07-31T15:01:50.262Z,1249.53
2018-07-31T15:04:19.004Z,1246.93
2018-07-31T15:06:47.285Z,1232.97
2018-07-31T15:09:15.999Z,1250.20
2018-07-31T15:11:44.783Z,1218.58
2018-07-31T15:14:14.128Z,1269.45
2018-07-31T15:16:42.865Z,1266.30
2018-07-31T15:19:11.544Z,1262.53
2018-07-31T15:21:40.940Z,1203.78
2018-07-31T15:24:09.620Z,1187.00
2018-07-31T15:26:39.298Z,1194.18
2018-07-31T15:29:08.029Z,1204.13
2018-07-31T15:31:36.680Z,1129.80
2018-07-31T15:34:05.999Z,1143.60
2018-07-31T15:36:35.005Z,1117.83
2018-07-31T15:39:06.211Z,1140.85
2018-07-31T15:41:35.099Z,1195.65
2018-07-31T15:44:04.035Z,1139.48
2018-07-31T15:46:32.890Z,1190.60
2018-07-31T15:49:02.674Z,1204.50
2018-07-31T15:51:31.471Z,1190.93
2018-07-31T15:54:00.264Z,1218.45
2018-07-31T15:56:29.522Z,1204.78
2018-07-31T15:58:59.245Z,1237.13
2018-07-31T16:01:28.807Z,1197.55
2018-07-31T16:03:58.168Z,1195.72
2018-07-31T16:06:26.831Z,1205.72
2018-07-31T16:08:55.532Z,1200.65
2018-07-31T16:11:24.246Z,1187.45
2018-07-31T16:13:53.069Z,1179.13
2018-07-31T16:16:21.761Z,1198.00
2018-07-31T16:18:50.478Z,1181.75
2018-07-31T16:21:19.325Z,1183.93
2018-07-31T16:23:48.102Z,1190.30
2018-07-31T16:26:17.488Z,1167.45
2018-07-31T16:28:46.189Z,1156.05
2018-07-31T16:31:14.980Z,1089.13
2018-07-31T16:33:43.671Z,1039.75
2018-07-31T16:36:12.509Z,1038.08
2018-07-31T16:38:41.219Z,1114.10
2018-07-31T16:41:09.961Z,1121.55
2018-07-31T16:43:39.815Z,1111.43
2018-07-31T16:46:08.256Z,1105.63
2018-07-31T16:48:36.974Z,1109.53
2018-07-31T16:51:05.610Z,1110.80
2018-07-31T16:53:35.325Z,1113.03
2018-07-31T16:56:04.074Z,1104.90
2018-07-31T16:58:32.834Z,1119.13
2018-07-31T17:01:01.614Z,1142.85
2018-07-31T17:03:30.319Z,1145.77
2018-07-31T17:05:59.076Z,1150.08
2018-07-31T17:08:27.717Z,1111.10
2018-07-31T17:10:56.471Z,1133.40
2018-07-31T17:13:26.173Z,1080.40
2018-07-31T17:15:55.137Z,1091.78
2018-07-31T17:18:23.840Z,1082.40
2018-07-31T17:20:52.780Z,1102.40
2018-07-31T17:23:21.579Z,1107.80
2018-07-31T17:25:50.294Z,1092.00
2018-07-31T17:28:19.076Z,1075.65
2018-07-31T17:30:47.764Z,1036.78
2018-07-31T17:33:16.497Z,1048.63
2018-07-31T17:35:45.219Z,1058.83
2018-07-31T17:38:14.037Z,1036.47
2018-07-31T17:40:42.805Z,1024.30
2018-07-31T17:43:11.543Z,1046.65
2018-07-31T17:45:43.307Z,1025.55
2018-07-31T17:48:12.154Z,1005.73
2018-07-31T17:50:41.424Z,1015.53
2018-07-31T17:53:10.720Z,992.60
2018-07-31T17:55:39.427Z,984.33
2018-07-31T17:58:07.765Z,973.87
2018-07-31T18:00:37.443Z,957.70
2018-07-31T18:03:06.284Z,1004.50
2018-07-31T18:05:35.043Z,1078.80
2018-07-31T18:08:03.949Z,1091.30
2018-07-31T18:10:33.359Z,1105.03
2018-07-31T18:13:02.075Z,1135.03
2018-07-31T18:15:30.933Z,1160.23
2018-07-31T18:17:59.976Z,1181.28
2018-07-31T18:20:29.389Z,1185.70
2018-07-31T18:22:58.142Z,1191.40
2018-07-31T18:25:26.884Z,1206.65
2018-07-31T18:27:55.648Z,1234.22
2018-07-31T18:30:24.438Z,1270.87
2018-07-31T18:32:53.322Z,1301.75
2018-07-31T18:35:22.136Z,1350.95
2018-07-31T18:37:50.850Z,1394.08
2018-07-31T18:40:21.736Z,1462.90
2018-07-31T18:42:50.550Z,1488.38
2018-07-31T18:45:19.371Z,1494.97
2018-07-31T18:47:48.146Z,1474.78
2018-07-31T18:50:16.958Z,1490.53
2018-07-31T18:52:46.736Z,1488.47
2018-07-31T18:55:15.870Z,1483.98
2018-07-31T18:57:44.611Z,1478.18
2018-07-31T19:00:14.373Z,1481.60
2018-07-31T19:02:45.265Z,1478.80
2018-07-31T19:05:14.210Z,1477.75
2018-07-31T19:07:43.017Z,1477.20
2018-07-31T19:10:11.785Z,1475.78
2018-07-31T19:12:40.698Z,1468.63
2018-07-31T19:15:09.476Z,1470.05
2018-07-31T19:17:39.332Z,1472.73
2018-07-31T19:20:08.183Z,1469.98
2018-07-31T19:22:36.957Z,1463.45
2018-07-31T19:25:05.817Z,1468.35
2018-07-31T19:27:34.939Z,1463.20
2018-07-31T19:30:04.840Z,1462.95
2018-07-31T19:32:34.676Z,1460.25
2018-07-31T19:35:03.484Z,1460.83
2018-07-31T19:37:33.278Z,1459.50
2018-07-31T19:40:02.119Z,1458.68
2018-07-31T19:42:30.901Z,1461.73
2018-07-31T19:44:59.823Z,1460.43
2018-07-31T19:47:29.276Z,1458.73
2018-07-31T19:49:58.224Z,1456.73
2018-07-31T19:52:29.666Z,1454.20
2018-07-31T19:54:59.395Z,1456.78
2018-07-31T19:57:28.160Z,1456.45
2018-07-31T19:59:57.169Z,1452.35
2018-07-31T20:02:25.961Z,1450.75
2018-07-31T20:04:55.665Z,1450.58
2018-07-31T20:07:24.537Z,1445.38
2018-07-31T20:09:54.001Z,1445.85
2018-07-31T20:12:23.520Z,1442.05
2018-07-31T20:14:52.254Z,1442.45
2018-07-31T20:17:20.970Z,1446.90
2018-07-31T20:19:52.054Z,1447.42
2018-07-31T20:22:21.863Z,1447.42
2018-07-31T20:24:51.007Z,1440.63
2018-07-31T20:27:19.972Z,1435.00
2018-07-31T20:29:48.804Z,1427.63
2018-07-31T20:32:17.634Z,1430.63
2018-07-31T20:34:47.392Z,1429.55
2018-07-31T20:37:16.332Z,1422.90
2018-07-31T20:39:45.093Z,1420.23
2018-07-31T20:42:13.893Z,1421.45
2018-07-31T20:44:43.229Z,1420.28
2018-07-31T20:47:12.058Z,1421.28
2018-07-31T20:49:40.837Z,1418.60
2018-07-31T20:52:10.814Z,1417.67
2018-07-31T20:54:40.668Z,1417.58
2018-07-31T20:57:09.395Z,1417.75
2018-07-31T20:59:38.223Z,1416.75
2018-07-31T21:02:07.914Z,1414.90
2018-07-31T21:04:37.713Z,1411.38
2018-07-31T21:07:06.881Z,1412.23
2018-07-31T21:09:35.637Z,1407.83
2018-07-31T21:12:04.563Z,1412.83
2018-07-31T21:14:34.289Z,1409.42
2018-07-31T21:17:03.062Z,1409.63
2018-07-31T21:19:31.906Z,1405.30
2018-07-31T21:22:01.633Z,1406.78
2018-07-31T21:24:30.410Z,1408.50
2018-07-31T21:26:59.177Z,1407.75
2018-07-31T21:29:28.104Z,1406.58
2018-07-31T21:31:56.943Z,1401.98
2018-07-31T21:34:25.671Z,1404.63
2018-07-31T21:36:54.765Z,1402.83
2018-07-31T21:39:23.670Z,1396.53
2018-07-31T21:41:52.365Z,1405.13
2018-07-31T21:44:21.190Z,1401.00
2018-07-31T21:46:50.443Z,1404.78
2018-07-31T21:49:19.143Z,1403.22
2018-07-31T21:51:47.540Z,1401.58
2018-07-31T21:54:16.363Z,1402.23
2018-07-31T21:56:45.150Z,1406.20
2018-07-31T21:59:14.904Z,1403.28
2018-07-31T22:01:45.562Z,1395.43
2018-07-31T22:04:14.322Z,1394.85
2018-07-31T22:06:43.091Z,1395.60
2018-07-31T22:09:11.925Z,1398.98
2018-07-31T22:11:40.637Z,1392.40
2018-07-31T22:14:09.467Z,1392.73
2018-07-31T22:16:38.227Z,1388.75
2018-07-31T22:19:06.958Z,1387.55
2018-07-31T22:21:36.243Z,1388.20
2018-07-31T22:24:06.968Z,1384.15
2018-07-31T22:26:35.724Z,1389.93
2018-07-31T22:29:04.216Z,1386.90
2018-07-31T22:31:34.973Z,1386.00
2018-07-31T22:34:03.782Z,1388.23
2018-07-31T22:36:32.592Z,1385.08
2018-07-31T22:39:01.334Z,1389.95
2018-07-31T22:41:30.359Z,1387.25
2018-07-31T22:43:59.750Z,1384.88
2018-07-31T22:46:30.464Z,1380.60
2018-07-31T22:48:59.376Z,1379.35
2018-07-31T22:51:29.227Z,1376.55
2018-07-31T22:53:57.921Z,1379.43
2018-07-31T22:56:26.781Z,1375.03
2018-07-31T22:58:55.544Z,1372.65
2018-07-31T23:01:24.616Z,1372.53
2018-07-31T23:03:53.472Z,1377.93
2018-07-31T23:06:22.238Z,1379.60
2018-07-31T23:08:50.984Z,1377.53
2018-07-31T23:11:19.754Z,1380.25
2018-07-31T23:13:48.707Z,1381.45
2018-07-31T23:16:17.470Z,1381.45
2018-07-31T23:18:46.195Z,1378.78
2018-07-31T23:21:16.180Z,1374.30
2018-07-31T23:23:44.953Z,1374.80
2018-07-31T23:26:13.714Z,1374.35
2018-07-31T23:28:42.509Z,1372.28
2018-07-31T23:31:12.383Z,1375.25
2018-07-31T23:33:41.687Z,1372.40
2018-07-31T23:36:10.769Z,1371.08
2018-07-31T23:38:40.119Z,1373.70
2018-07-31T23:41:09.293Z,1376.83
2018-07-31T23:43:38.134Z,1371.97
2018-07-31T23:46:06.962Z,1375.40
2018-07-31T23:48:35.887Z,1374.50
2018-07-31T23:51:04.641Z,1370.98
2018-07-31T23:53:33.436Z,1370.75
2018-07-31T23:56:02.215Z,1369.08
2018-07-31T23:58:30.991Z,1370.40
